createdAt,value
2023-04-06T00:01:53.362Z,93011.91
2023-04-06T00:04:21.306Z,93008.78
2023-04-06T00:06:48.605Z,93013.41
2023-04-06T00:09:15.942Z,93010.31
2023-04-06T00:11:43.563Z,93003.69
2023-04-06T00:14:11.037Z,93002.88
2023-04-06T00:16:38.400Z,92998.34
2023-04-06T00:19:06.235Z,93001.81
2023-04-06T00:21:33.983Z,92993.91
2023-04-06T00:24:01.333Z,92995.56
2023-04-06T00:26:30.164Z,92987.53
2023-04-06T00:28:59.898Z,92991.69
2023-04-06T00:31:27.229Z,92986.84
2023-04-06T00:33:54.984Z,92985.31
2023-04-06T00:36:22.440Z,92991.53
2023-04-06T00:38:49.859Z,92992.78
2023-04-06T00:41:18.900Z,92987.38
2023-04-06T00:43:46.174Z,92986.38
2023-04-06T00:46:13.576Z,92986.47
2023-04-06T00:48:42.115Z,92982.66
2023-04-06T00:51:09.491Z,92982.13
2023-04-06T00:53:36.930Z,92979.66
2023-04-06T00:56:05.693Z,92969.00
2023-04-06T00:58:34.521Z,92968.28
2023-04-06T01:01:02.364Z,92976.00
2023-04-06T01:03:30.119Z,92967.59
2023-04-06T01:05:59.434Z,92968.66
2023-04-06T01:08:28.229Z,92962.81
2023-04-06T01:10:56.309Z,92965.25
2023-04-06T01:13:23.856Z,92970.31
2023-04-06T01:15:51.928Z,92963.78
2023-04-06T01:18:27.413Z,92964.03
2023-04-06T01:20:56.285Z,92966.34
2023-04-06T01:23:26.039Z,92958.37
2023-04-06T01:25:53.425Z,92956.06
2023-04-06T01:28:20.755Z,92949.59
2023-04-06T01:30:49.372Z,92946.84
2023-04-06T01:33:16.975Z,92944.00
2023-04-06T01:35:44.855Z,92941.41
2023-04-06T01:38:13.512Z,92936.81
2023-04-06T01:40:41.209Z,92943.28
2023-04-06T01:43:08.585Z,92935.75
2023-04-06T01:45:36.813Z,92941.63
2023-04-06T01:48:04.872Z,92944.69
2023-04-06T01:50:32.572Z,92942.31
2023-04-06T01:53:00.332Z,92934.09
2023-04-06T01:55:28.233Z,92934.09
2023-04-06T01:57:56.459Z,92939.31
2023-04-06T02:00:27.339Z,92941.44
2023-04-06T02:02:56.015Z,92932.28
2023-04-06T02:05:23.708Z,92931.06
2023-04-06T02:07:52.674Z,92933.38
2023-04-06T02:10:22.004Z,92929.38
2023-04-06T02:12:49.807Z,92932.12
2023-04-06T02:15:18.487Z,92939.56
2023-04-06T02:17:46.166Z,92935.25
2023-04-06T02:20:13.726Z,92935.50
2023-04-06T02:22:41.517Z,92935.13
2023-04-06T02:25:09.828Z,92927.87
2023-04-06T02:27:37.461Z,92929.72
2023-04-06T02:30:06.551Z,92924.84
2023-04-06T02:32:34.057Z,92928.84
2023-04-06T02:35:02.030Z,92927.87
2023-04-06T02:37:30.589Z,92918.75
2023-04-06T02:39:59.618Z,92926.28
2023-04-06T02:42:27.897Z,92923.94
2023-04-06T02:44:55.806Z,92925.56
2023-04-06T02:47:24.398Z,92932.56
2023-04-06T02:49:52.092Z,92926.19
2023-04-06T02:52:20.362Z,92923.16
2023-04-06T02:54:47.954Z,92917.56
2023-04-06T02:57:20.074Z,92924.78
2023-04-06T02:59:47.990Z,92920.22
2023-04-06T03:02:15.811Z,92918.91
2023-04-06T03:04:44.264Z,92919.50
2023-04-06T03:07:15.155Z,92917.22
2023-04-06T03:09:42.657Z,92924.44
2023-04-06T03:12:10.434Z,92923.62
2023-04-06T03:14:39.675Z,92918.38
2023-04-06T03:17:07.107Z,92914.75
2023-04-06T03:19:34.717Z,92922.28
2023-04-06T03:22:02.775Z,92926.72
2023-04-06T03:24:30.346Z,92921.06
2023-04-06T03:26:57.832Z,92926.63
2023-04-06T03:29:25.813Z,92929.66
2023-04-06T03:31:53.516Z,92933.44
2023-04-06T03:34:22.198Z,92934.09
2023-04-06T03:36:59.831Z,92931.78
2023-04-06T03:39:37.410Z,92931.22
2023-04-06T03:42:05.525Z,92931.22
2023-04-06T03:44:33.144Z,92935.50
2023-04-06T03:47:00.699Z,92932.66
2023-04-06T03:49:28.957Z,92931.78
2023-04-06T03:51:57.786Z,92932.38
2023-04-06T03:54:25.202Z,92934.69
2023-04-06T03:56:52.923Z,92931.69
2023-04-06T03:59:20.744Z,92938.31
2023-04-06T04:01:48.214Z,92932.28
2023-04-06T04:04:16.064Z,92928.56
2023-04-06T04:06:43.464Z,92929.44
2023-04-06T04:09:11.179Z,92931.31
2023-04-06T04:11:39.088Z,92937.06
2023-04-06T04:14:06.479Z,92939.69
2023-04-06T04:16:33.954Z,92941.97
2023-04-06T04:19:01.674Z,92928.81
2023-04-06T04:21:32.599Z,92928.19
2023-04-06T04:24:01.547Z,92931.62
2023-04-06T04:26:29.396Z,92926.94
2023-04-06T04:28:56.867Z,92928.97
2023-04-06T04:31:24.568Z,92926.25
2023-04-06T04:33:53.610Z,92925.34
2023-04-06T04:36:25.598Z,92928.19
2023-04-06T04:38:54.035Z,92926.41
2023-04-06T04:41:21.839Z,92918.88
2023-04-06T04:43:50.405Z,92917.97
2023-04-06T04:46:21.288Z,92924.09
2023-04-06T04:48:48.858Z,92925.25
2023-04-06T04:51:16.802Z,92923.50
2023-04-06T04:53:45.923Z,92924.62
2023-04-06T04:56:15.247Z,92926.56
2023-04-06T04:58:44.617Z,92929.06
2023-04-06T05:01:12.865Z,92920.87
2023-04-06T05:03:40.878Z,92922.47
2023-04-06T05:06:09.686Z,92923.72
2023-04-06T05:08:39.790Z,92926.91
2023-04-06T05:11:07.576Z,92924.59
2023-04-06T05:13:35.805Z,92928.81
2023-04-06T05:16:06.931Z,92924.56
2023-04-06T05:18:34.911Z,92922.34
2023-04-06T05:21:02.785Z,92925.06
2023-04-06T05:23:31.755Z,92923.72
2023-04-06T05:26:01.824Z,92925.16
2023-04-06T05:28:29.353Z,92924.62
2023-04-06T05:30:58.130Z,92919.91
2023-04-06T05:33:27.438Z,92927.69
2023-04-06T05:35:55.648Z,92921.47
2023-04-06T05:38:23.810Z,92917.91
2023-04-06T05:40:52.236Z,92917.06
2023-04-06T05:43:23.057Z,92909.69
2023-04-06T05:45:52.987Z,92907.41
2023-04-06T05:48:21.285Z,92901.38
2023-04-06T05:50:51.540Z,92911.72
2023-04-06T05:53:22.292Z,92902.66
2023-04-06T05:55:51.042Z,92908.31
2023-04-06T05:58:18.571Z,92892.69
2023-04-06T06:00:47.220Z,92895.03
2023-04-06T06:03:16.532Z,92895.69
2023-04-06T06:05:46.831Z,92897.63
2023-04-06T06:08:14.984Z,92893.19
2023-04-06T06:10:42.490Z,92904.78
2023-04-06T06:13:11.341Z,92901.28
2023-04-06T06:15:39.321Z,92905.41
2023-04-06T06:18:07.031Z,92905.59
2023-04-06T06:20:34.550Z,92893.72
2023-04-06T06:23:02.485Z,92892.72
2023-04-06T06:25:32.104Z,92887.34
2023-04-06T06:28:00.263Z,92895.31
2023-04-06T06:30:29.871Z,92894.53
2023-04-06T06:32:57.490Z,92885.19
2023-04-06T06:35:25.337Z,92894.12
2023-04-06T06:37:53.178Z,92897.72
2023-04-06T06:40:25.123Z,92895.72
2023-04-06T06:42:53.782Z,92889.37
2023-04-06T06:45:21.854Z,92893.16
2023-04-06T06:47:49.338Z,92888.16
2023-04-06T06:50:17.163Z,92896.91
2023-04-06T06:52:45.971Z,92895.09
2023-04-06T06:55:13.425Z,92903.28
2023-04-06T06:57:43.565Z,92894.53
2023-04-06T07:00:13.539Z,92896.72
2023-04-06T07:02:42.260Z,92885.19
2023-04-06T07:05:19.917Z,92891.53
2023-04-06T07:07:55.965Z,92889.75
2023-04-06T07:10:23.854Z,92888.34
2023-04-06T07:12:51.305Z,92889.34
2023-04-06T07:15:19.055Z,92883.31
2023-04-06T07:17:46.802Z,92882.97
2023-04-06T07:20:14.850Z,92897.28
2023-04-06T07:22:44.660Z,92889.31
2023-04-06T07:25:11.977Z,92885.09
2023-04-06T07:27:41.885Z,92894.31
2023-04-06T07:30:10.533Z,92888.34
2023-04-06T07:32:38.234Z,92889.44
2023-04-06T07:35:06.221Z,92886.44
2023-04-06T07:37:34.296Z,92873.66
2023-04-06T07:40:01.784Z,92885.03
2023-04-06T07:42:30.813Z,92880.81
2023-04-06T07:44:58.706Z,92876.25
2023-04-06T07:47:26.372Z,92882.53
2023-04-06T07:49:57.171Z,92884.94
2023-04-06T07:52:25.058Z,92874.56
2023-04-06T07:54:52.417Z,92872.91
2023-04-06T07:57:19.947Z,92880.44
2023-04-06T07:59:47.648Z,92880.53
2023-04-06T08:02:15.150Z,92886.34
2023-04-06T08:04:44.633Z,92882.69
2023-04-06T08:07:13.672Z,92891.22
2023-04-06T08:09:41.105Z,92881.44
2023-04-06T08:12:08.948Z,92880.59
2023-04-06T08:14:36.522Z,92889.31
2023-04-06T08:17:05.917Z,92881.97
2023-04-06T08:19:34.300Z,92876.19
2023-04-06T08:22:01.685Z,92883.25
2023-04-06T08:24:29.124Z,92877.34
2023-04-06T08:26:56.931Z,92882.28
2023-04-06T08:29:24.406Z,92875.72
2023-04-06T08:31:51.683Z,92881.91
2023-04-06T08:34:19.502Z,92872.72
2023-04-06T08:36:47.982Z,92882.25
2023-04-06T08:39:15.554Z,92882.03
2023-04-06T08:41:45.167Z,92877.13
2023-04-06T08:44:13.162Z,92880.59
2023-04-06T08:46:41.779Z,92871.94
2023-04-06T08:49:09.676Z,92875.37
2023-04-06T08:51:39.290Z,92877.59
2023-04-06T08:54:07.044Z,92876.78
2023-04-06T08:56:39.205Z,92873.25
2023-04-06T08:59:07.755Z,92874.31
2023-04-06T09:01:42.426Z,92874.34
2023-04-06T09:04:12.793Z,92873.78
2023-04-06T09:06:41.956Z,92864.16
2023-04-06T09:09:09.733Z,92871.41
2023-04-06T09:12:07.067Z,92873.50
2023-04-06T09:14:39.164Z,92880.97
2023-04-06T09:17:07.454Z,92870.91
2023-04-06T09:19:35.158Z,92867.72
2023-04-06T09:22:08.462Z,92879.09
2023-04-06T09:24:50.887Z,92872.97
2023-04-06T09:27:18.879Z,92868.53
2023-04-06T09:29:46.598Z,92869.41
2023-04-06T09:32:17.999Z,92876.72
2023-04-06T09:34:50.795Z,92862.38
2023-04-06T09:37:20.255Z,92868.53
2023-04-06T09:39:47.903Z,92873.03
2023-04-06T09:42:26.779Z,92865.13
2023-04-06T09:44:54.360Z,92868.31
2023-04-06T09:47:29.597Z,92864.31
2023-04-06T09:50:00.386Z,92865.25
2023-04-06T09:52:32.886Z,92868.13
2023-04-06T09:55:06.244Z,92855.47
2023-04-06T09:58:06.751Z,92852.28
2023-04-06T10:00:44.836Z,92850.19
2023-04-06T10:03:38.772Z,92857.94
2023-04-06T10:06:12.466Z,92842.88
2023-04-06T10:08:42.612Z,92840.88
2023-04-06T10:11:13.728Z,92844.41
2023-04-06T10:13:41.791Z,92839.53
2023-04-06T10:16:09.525Z,92841.03
2023-04-06T10:18:38.710Z,92848.09
2023-04-06T10:21:22.012Z,92840.28
2023-04-06T10:23:52.175Z,92837.13
2023-04-06T10:26:23.663Z,92840.31
2023-04-06T10:28:51.955Z,92853.00
2023-04-06T10:31:27.676Z,92858.41
2023-04-06T10:34:01.913Z,92847.31
2023-04-06T10:36:33.669Z,92847.66
2023-04-06T10:39:06.253Z,92845.06
2023-04-06T10:41:43.240Z,92847.00
2023-04-06T10:44:21.632Z,92846.94
2023-04-06T10:47:02.903Z,92839.88
2023-04-06T10:49:30.256Z,92838.44
2023-04-06T10:51:58.439Z,92832.38
2023-04-06T10:54:28.187Z,92834.72
2023-04-06T10:56:57.263Z,92841.00
2023-04-06T10:59:26.597Z,92827.03
2023-04-06T11:01:56.196Z,92826.72
2023-04-06T11:04:24.756Z,92824.28
2023-04-06T11:06:52.710Z,92833.03
2023-04-06T11:09:32.679Z,92820.00
2023-04-06T11:12:00.484Z,92818.38
2023-04-06T11:14:28.036Z,92827.91
2023-04-06T11:16:55.448Z,92828.50
2023-04-06T11:19:23.241Z,92810.62
2023-04-06T11:21:50.874Z,92812.31
2023-04-06T11:24:20.573Z,92810.47
2023-04-06T11:26:52.232Z,92809.72
2023-04-06T11:29:24.637Z,92800.72
2023-04-06T11:31:53.402Z,92815.66
2023-04-06T11:34:22.912Z,92813.50
2023-04-06T11:36:58.524Z,92814.72
2023-04-06T11:39:28.809Z,92818.19
2023-04-06T11:42:08.508Z,92817.81
2023-04-06T11:44:43.820Z,92824.00
2023-04-06T11:47:12.092Z,92820.53
2023-04-06T11:49:42.112Z,92819.13
2023-04-06T11:52:24.342Z,92822.81
2023-04-06T11:54:54.597Z,92815.28
2023-04-06T11:57:26.688Z,92817.28
2023-04-06T11:59:54.771Z,92817.69
2023-04-06T12:02:22.327Z,92816.75
2023-04-06T12:04:50.277Z,92810.78
2023-04-06T12:07:17.819Z,92810.06
2023-04-06T12:09:45.559Z,92813.22
2023-04-06T12:12:13.320Z,92810.41
2023-04-06T12:14:41.087Z,92806.34
2023-04-06T12:17:08.628Z,92815.31
2023-04-06T12:19:36.288Z,92812.56
2023-04-06T12:22:03.680Z,92819.78
2023-04-06T12:24:31.208Z,92814.81
2023-04-06T12:27:08.680Z,92811.13
2023-04-06T12:29:38.006Z,92819.19
2023-04-06T12:32:06.672Z,92808.88
2023-04-06T12:34:34.085Z,92805.69
2023-04-06T12:37:01.689Z,92806.47
2023-04-06T12:39:29.541Z,92804.22
2023-04-06T12:41:58.396Z,92813.22
2023-04-06T12:44:27.005Z,92799.19
2023-04-06T12:46:55.221Z,92801.81
2023-04-06T12:49:23.086Z,92800.88
2023-04-06T12:51:51.368Z,92795.25
2023-04-06T12:54:19.044Z,92790.72
2023-04-06T12:56:46.694Z,92795.69
2023-04-06T12:59:14.163Z,92791.63
2023-04-06T13:01:41.886Z,92798.66
2023-04-06T13:04:09.173Z,92792.56
2023-04-06T13:06:36.567Z,92790.63
2023-04-06T13:09:05.494Z,92795.12
2023-04-06T13:11:33.129Z,92792.75
2023-04-06T13:14:00.536Z,92789.50
2023-04-06T13:16:28.666Z,92786.56
2023-04-06T13:18:56.335Z,92787.34
2023-04-06T13:21:23.663Z,92784.63
2023-04-06T13:23:52.543Z,92781.31
2023-04-06T13:26:19.880Z,92784.69
2023-04-06T13:28:47.382Z,92781.53
2023-04-06T13:31:15.026Z,92775.22
2023-04-06T13:33:42.457Z,92781.69
2023-04-06T13:36:09.913Z,92766.53
2023-04-06T13:38:40.075Z,92780.19
2023-04-06T13:41:07.587Z,92772.16
2023-04-06T13:43:34.924Z,92784.16
2023-04-06T13:46:02.715Z,92781.00
2023-04-06T13:48:30.117Z,92777.78
2023-04-06T13:50:57.786Z,92766.59
2023-04-06T13:53:25.498Z,92778.72
2023-04-06T13:55:56.768Z,92767.34
2023-04-06T13:58:24.710Z,92771.28
2023-04-06T14:00:52.563Z,92762.41
2023-04-06T14:03:21.532Z,92764.53
2023-04-06T14:05:49.003Z,92765.94
2023-04-06T14:08:16.580Z,92761.78
2023-04-06T14:10:44.337Z,92759.84
2023-04-06T14:13:11.708Z,92771.62
2023-04-06T14:15:39.235Z,92753.44
2023-04-06T14:18:07.188Z,92764.78
2023-04-06T14:20:34.723Z,92764.78
2023-04-06T14:23:03.160Z,92762.13
2023-04-06T14:25:35.955Z,92766.28
2023-04-06T14:28:03.614Z,92766.09
2023-04-06T14:30:32.266Z,92760.25
2023-04-06T14:32:59.724Z,92762.47
2023-04-06T14:35:29.430Z,92768.59
2023-04-06T14:37:59.310Z,92767.97
2023-04-06T14:40:26.756Z,92768.00
2023-04-06T14:42:54.234Z,92776.97
2023-04-06T14:45:22.902Z,92765.25
2023-04-06T14:47:50.526Z,92757.81
2023-04-06T14:50:17.925Z,92759.63
2023-04-06T14:52:47.663Z,92769.25
2023-04-06T14:55:15.298Z,92762.41
2023-04-06T14:57:42.665Z,92767.22
2023-04-06T15:00:11.346Z,92765.16
2023-04-06T15:02:39.569Z,92772.25
2023-04-06T15:05:07.503Z,92778.03
2023-04-06T15:07:35.280Z,92770.66
2023-04-06T15:10:02.904Z,92775.44
2023-04-06T15:12:31.094Z,92771.59
2023-04-06T15:14:58.843Z,92780.19
2023-04-06T15:17:27.661Z,92782.59
2023-04-06T15:19:55.565Z,92780.78
2023-04-06T15:22:23.298Z,92789.03
2023-04-06T15:24:50.746Z,92787.03
2023-04-06T15:27:18.323Z,92791.47
2023-04-06T15:29:45.953Z,92790.59
2023-04-06T15:32:13.619Z,92793.53
2023-04-06T15:34:41.142Z,92800.34
2023-04-06T15:37:09.478Z,92797.69
2023-04-06T15:39:38.025Z,92789.84
2023-04-06T15:42:05.527Z,92807.16
2023-04-06T15:44:33.338Z,92807.56
2023-04-06T15:47:00.808Z,92820.47
2023-04-06T15:49:28.281Z,92814.81
2023-04-06T15:51:56.128Z,92814.44
2023-04-06T15:54:23.452Z,92830.31
2023-04-06T15:56:51.154Z,92822.97
2023-04-06T15:59:20.053Z,92831.00
2023-04-06T16:01:47.836Z,92827.81
2023-04-06T16:04:15.783Z,92824.22
2023-04-06T16:06:43.159Z,92816.91
2023-04-06T16:09:10.482Z,92818.47
2023-04-06T16:11:38.308Z,92819.41
2023-04-06T16:14:05.775Z,92822.69
2023-04-06T16:16:33.238Z,92829.00
2023-04-06T16:19:01.148Z,92830.44
2023-04-06T16:21:29.025Z,92837.78
2023-04-06T16:23:59.205Z,92834.44
2023-04-06T16:26:27.740Z,92836.53
2023-04-06T16:28:55.315Z,92837.25
2023-04-06T16:31:24.583Z,92840.25
2023-04-06T16:33:54.531Z,92839.62
2023-04-06T16:36:29.205Z,92832.47
2023-04-06T16:38:58.043Z,92846.00
2023-04-06T16:41:27.700Z,92834.41
2023-04-06T16:43:57.919Z,92838.50
2023-04-06T16:46:32.524Z,92844.87
2023-04-06T16:49:00.684Z,92847.50
2023-04-06T16:51:28.810Z,92857.03
2023-04-06T16:53:56.198Z,92857.47
2023-04-06T16:56:23.774Z,92866.41
2023-04-06T16:58:51.844Z,92874.00
2023-04-06T17:01:24.147Z,92864.66
2023-04-06T17:03:54.118Z,92874.44
2023-04-06T17:06:21.998Z,92868.44
2023-04-06T17:08:49.993Z,92876.97
2023-04-06T17:11:21.767Z,92879.78
2023-04-06T17:13:51.002Z,92889.28
2023-04-06T17:16:19.711Z,92886.16
2023-04-06T17:18:47.134Z,92889.56
2023-04-06T17:21:14.750Z,92898.88
2023-04-06T17:23:42.767Z,92897.31
2023-04-06T17:26:10.122Z,92899.91
2023-04-06T17:28:37.474Z,92893.72
2023-04-06T17:31:13.111Z,92905.66
2023-04-06T17:33:41.665Z,92909.06
2023-04-06T17:36:11.125Z,92906.84
2023-04-06T17:38:43.557Z,92911.81
2023-04-06T17:41:13.569Z,92916.00
2023-04-06T17:43:41.065Z,92913.41
2023-04-06T17:46:08.664Z,92919.78
2023-04-06T17:48:36.565Z,92926.34
2023-04-06T17:51:04.216Z,92924.56
2023-04-06T17:53:34.568Z,92923.38
2023-04-06T17:56:04.174Z,92933.69
2023-04-06T17:58:31.770Z,92929.53
2023-04-06T18:00:59.084Z,92937.50
2023-04-06T18:03:27.447Z,92939.88
2023-04-06T18:05:55.093Z,92941.44
2023-04-06T18:08:22.678Z,92948.19
2023-04-06T18:10:50.428Z,92949.81
2023-04-06T18:13:17.826Z,92944.22
2023-04-06T18:15:45.858Z,92954.38
2023-04-06T18:18:13.652Z,92952.00
2023-04-06T18:20:41.847Z,92966.13
2023-04-06T18:23:09.236Z,92968.50
2023-04-06T18:25:41.100Z,92963.12
2023-04-06T18:28:09.596Z,92972.50
2023-04-06T18:30:37.422Z,92972.06
2023-04-06T18:33:06.734Z,92968.09
2023-04-06T18:35:34.020Z,92971.09
2023-04-06T18:38:01.688Z,92975.06
2023-04-06T18:40:34.248Z,92969.72
2023-04-06T18:43:03.297Z,92978.25
2023-04-06T18:45:36.378Z,92979.25
2023-04-06T18:48:04.578Z,92976.66
2023-04-06T18:50:31.896Z,92986.19
2023-04-06T18:52:59.320Z,92982.03
2023-04-06T18:55:27.099Z,92990.97
2023-04-06T18:57:54.554Z,92988.41
2023-04-06T19:00:22.027Z,92989.56
2023-04-06T19:02:49.983Z,92987.00
2023-04-06T19:05:17.642Z,92988.78
2023-04-06T19:07:52.524Z,92988.97
2023-04-06T19:10:20.586Z,92996.13
2023-04-06T19:12:48.985Z,92991.56
2023-04-06T19:15:16.479Z,92989.19
2023-04-06T19:17:44.244Z,92990.38
2023-04-06T19:20:11.978Z,92998.50
2023-04-06T19:22:39.362Z,92999.13
2023-04-06T19:25:08.102Z,92998.34
2023-04-06T19:27:35.557Z,92991.97
2023-04-06T19:30:07.106Z,92994.75
2023-04-06T19:32:34.903Z,92997.34
2023-04-06T19:35:06.469Z,93002.72
2023-04-06T19:37:34.651Z,93001.72
2023-04-06T19:40:07.699Z,93001.94
2023-04-06T19:42:35.216Z,93001.72
2023-04-06T19:45:04.062Z,93009.09
2023-04-06T19:47:31.681Z,93005.69
2023-04-06T19:49:59.103Z,93005.88
2023-04-06T19:52:27.454Z,93007.88
2023-04-06T19:54:55.686Z,93016.00
2023-04-06T19:57:23.221Z,93006.06
2023-04-06T19:59:51.166Z,93008.84
2023-04-06T20:02:19.000Z,93003.06
2023-04-06T20:04:46.991Z,93014.41
2023-04-06T20:07:14.410Z,93010.44
2023-04-06T20:09:41.753Z,93006.25
2023-04-06T20:12:09.493Z,93015.75
2023-04-06T20:14:36.871Z,93017.00
2023-04-06T20:17:04.601Z,93019.53
2023-04-06T20:19:32.416Z,93019.81
2023-04-06T20:22:03.304Z,93022.34
2023-04-06T20:24:31.590Z,93024.91
2023-04-06T20:26:59.677Z,93010.03
2023-04-06T20:29:27.954Z,93019.63
2023-04-06T20:31:55.820Z,93013.03
2023-04-06T20:34:26.209Z,93019.81
2023-04-06T20:36:53.939Z,93032.13
2023-04-06T20:39:21.928Z,93031.47
2023-04-06T20:41:50.968Z,93029.50
2023-04-06T20:44:19.164Z,93034.72
2023-04-06T20:46:48.575Z,93028.13
2023-04-06T20:49:17.166Z,93031.94
2023-04-06T20:51:45.841Z,93030.09
2023-04-06T20:54:13.224Z,93026.31
2023-04-06T20:56:41.044Z,93035.66
2023-04-06T20:59:08.377Z,93047.72
2023-04-06T21:01:35.833Z,93041.00
2023-04-06T21:04:04.343Z,93039.50
2023-04-06T21:06:32.629Z,93041.91
2023-04-06T21:09:01.511Z,93049.31
2023-04-06T21:11:29.817Z,93046.41
2023-04-06T21:13:57.205Z,93044.34
2023-04-06T21:16:24.576Z,93047.50
2023-04-06T21:18:52.304Z,93055.44
2023-04-06T21:21:20.087Z,93057.87
2023-04-06T21:23:47.431Z,93058.22
2023-04-06T21:26:15.085Z,93058.00
2023-04-06T21:28:42.533Z,93057.34
2023-04-06T21:31:10.009Z,93049.66
2023-04-06T21:33:37.756Z,93047.34
2023-04-06T21:36:06.889Z,93047.72
2023-04-06T21:38:37.771Z,93055.00
2023-04-06T21:41:07.377Z,93052.81
2023-04-06T21:43:34.708Z,93056.22
2023-04-06T21:46:02.328Z,93046.25
2023-04-06T21:48:30.308Z,93051.91
2023-04-06T21:50:57.561Z,93049.63
2023-04-06T21:53:24.858Z,93050.50
2023-04-06T21:55:52.810Z,93044.97
2023-04-06T21:58:20.171Z,93042.75
2023-04-06T22:00:47.557Z,93044.97
2023-04-06T22:17:59.383Z,93041.56
2023-04-06T22:20:28.032Z,93041.56
2023-04-06T22:22:55.526Z,93039.25
2023-04-06T22:25:23.359Z,93031.94
2023-04-06T22:27:50.986Z,93041.03
2023-04-06T22:30:18.326Z,93043.69
2023-04-06T22:32:45.823Z,93031.22
2023-04-06T22:35:13.635Z,93031.19
2023-04-06T22:37:44.428Z,93033.69
2023-04-06T22:40:12.233Z,93040.50
2023-04-06T22:42:40.059Z,93030.91
2023-04-06T22:45:07.686Z,93032.16
2023-04-06T22:47:35.055Z,93024.41
2023-04-06T22:50:02.913Z,93026.78
2023-04-06T22:52:30.207Z,93028.31
2023-04-06T22:54:57.516Z,93040.19
2023-04-06T22:57:25.475Z,93028.19
2023-04-06T22:59:52.943Z,93031.47
2023-04-06T23:02:20.608Z,93039.41
2023-04-06T23:04:48.382Z,93031.53
2023-04-06T23:07:15.655Z,93031.88
2023-04-06T23:09:44.380Z,93028.44
2023-04-06T23:12:12.268Z,93033.81
2023-04-06T23:14:39.520Z,93030.31
2023-04-06T23:17:07.027Z,93031.47
2023-04-06T23:19:34.839Z,93036.84
2023-04-06T23:22:02.529Z,93025.31
2023-04-06T23:24:29.804Z,93032.22
2023-04-06T23:26:57.732Z,93020.37
2023-04-06T23:29:25.209Z,93020.22
2023-04-06T23:31:52.584Z,93020.00
2023-04-06T23:34:20.277Z,93023.22
2023-04-06T23:36:47.653Z,93020.00
2023-04-06T23:39:14.994Z,93028.25
2023-04-06T23:41:43.291Z,93025.53
2023-04-06T23:44:10.762Z,93031.12
2023-04-06T23:46:38.171Z,93034.22
2023-04-06T23:49:05.886Z,93027.25
2023-04-06T23:51:33.190Z,93027.97
2023-04-06T23:54:00.514Z,93025.72
2023-04-06T23:56:28.164Z,93028.09
2023-04-06T23:58:55.566Z,93017.94
